sensor_id;sensor_type;location;lat;lon;timestamp;P1;durP1;ratioP1;P2;durP2;ratioP2
7501;SDS011;3792;47.740;7.606;2023-03-13T00:01:32;2.57;;;1.47;;
7501;SDS011;3792;47.740;7.606;2023-03-13T00:04:00;4.43;;;1.50;;
7501;SDS011;3792;47.740;7.606;2023-03-13T00:06:30;1.43;;;0.93;;
7501;SDS011;3792;47.740;7.606;2023-03-13T00:08:58;5.93;;;1.20;;
7501;SDS011;3792;47.740;7.606;2023-03-13T00:11:26;4.60;;;1.43;;
7501;SDS011;3792;47.740;7.606;2023-03-13T00:13:54;2.53;;;1.13;;
7501;SDS011;3792;47.740;7.606;2023-03-13T00:16:21;2.07;;;1.20;;
7501;SDS011;3792;47.740;7.606;2023-03-13T00:18:49;3.03;;;1.20;;
7501;SDS011;3792;47.740;7.606;2023-03-13T00:21:19;4.33;;;1.57;;
7501;SDS011;3792;47.740;7.606;2023-03-13T00:23:48;2.90;;;1.20;;
7501;SDS011;3792;47.740;7.606;2023-03-13T00:26:16;1.70;;;1.17;;
7501;SDS011;3792;47.740;7.606;2023-03-13T00:28:44;3.57;;;1.10;;
7501;SDS011;3792;47.740;7.606;2023-03-13T00:31:13;5.40;;;1.43;;
7501;SDS011;3792;47.740;7.606;2023-03-13T00:33:42;5.67;;;1.57;;
7501;SDS011;3792;47.740;7.606;2023-03-13T00:36:11;2.30;;;1.23;;
7501;SDS011;3792;47.740;7.606;2023-03-13T00:38:39;1.47;;;1.10;;
7501;SDS011;3792;47.740;7.606;2023-03-13T00:41:08;2.80;;;1.10;;
7501;SDS011;3792;47.740;7.606;2023-03-13T00:43:37;3.17;;;1.23;;
7501;SDS011;3792;47.740;7.606;2023-03-13T00:46:05;2.07;;;1.00;;
7501;SDS011;3792;47.740;7.606;2023-03-13T00:48:32;3.60;;;1.33;;
7501;SDS011;3792;47.740;7.606;2023-03-13T00:51:00;3.20;;;1.10;;
7501;SDS011;3792;47.740;7.606;2023-03-13T00:53:27;2.37;;;1.13;;
7501;SDS011;3792;47.740;7.606;2023-03-13T00:55:55;2.40;;;1.10;;
7501;SDS011;3792;47.740;7.606;2023-03-13T00:58:25;1.80;;;0.90;;
7501;SDS011;3792;47.740;7.606;2023-03-13T01:00:53;2.83;;;1.00;;
7501;SDS011;3792;47.740;7.606;2023-03-13T01:03:22;1.80;;;1.00;;
7501;SDS011;3792;47.740;7.606;2023-03-13T01:05:54;2.20;;;1.00;;
7501;SDS011;3792;47.740;7.606;2023-03-13T01:08:22;3.00;;;1.03;;
7501;SDS011;3792;47.740;7.606;2023-03-13T01:10:49;1.20;;;0.83;;
7501;SDS011;3792;47.740;7.606;2023-03-13T01:13:16;3.73;;;1.10;;
7501;SDS011;3792;47.740;7.606;2023-03-13T01:15:44;3.87;;;1.33;;
7501;SDS011;3792;47.740;7.606;2023-03-13T01:18:11;1.07;;;0.90;;
7501;SDS011;3792;47.740;7.606;2023-03-13T01:20:39;2.20;;;0.90;;
7501;SDS011;3792;47.740;7.606;2023-03-13T01:23:06;3.23;;;1.20;;
7501;SDS011;3792;47.740;7.606;2023-03-13T01:25:34;2.43;;;0.93;;
7501;SDS011;3792;47.740;7.606;2023-03-13T01:28:02;3.07;;;1.00;;
7501;SDS011;3792;47.740;7.606;2023-03-13T01:30:29;3.40;;;1.10;;
7501;SDS011;3792;47.740;7.606;2023-03-13T01:32:58;2.03;;;1.00;;
7501;SDS011;3792;47.740;7.606;2023-03-13T01:35:26;2.17;;;1.10;;
7501;SDS011;3792;47.740;7.606;2023-03-13T01:37:53;2.67;;;1.30;;
7501;SDS011;3792;47.740;7.606;2023-03-13T01:40:20;2.43;;;0.97;;
7501;SDS011;3792;47.740;7.606;2023-03-13T01:42:48;4.27;;;1.23;;
7501;SDS011;3792;47.740;7.606;2023-03-13T01:48:22;4.13;;;1.10;;
7501;SDS011;3792;47.740;7.606;2023-03-13T01:50:52;4.40;;;1.23;;
7501;SDS011;3792;47.740;7.606;2023-03-13T01:53:20;2.37;;;0.90;;
7501;SDS011;3792;47.740;7.606;2023-03-13T01:55:48;3.83;;;0.97;;
7501;SDS011;3792;47.740;7.606;2023-03-13T01:58:16;2.63;;;1.13;;
7501;SDS011;3792;47.740;7.606;2023-03-13T02:00:43;1.20;;;0.90;;
7501;SDS011;3792;47.740;7.606;2023-03-13T02:03:13;1.83;;;1.30;;
7501;SDS011;3792;47.740;7.606;2023-03-13T02:05:43;2.07;;;0.90;;
7501;SDS011;3792;47.740;7.606;2023-03-13T02:08:14;1.90;;;0.83;;
7501;SDS011;3792;47.740;7.606;2023-03-13T02:10:50;1.70;;;1.00;;
7501;SDS011;3792;47.740;7.606;2023-03-13T02:13:21;4.23;;;1.13;;
7501;SDS011;3792;47.740;7.606;2023-03-13T02:15:48;2.47;;;0.80;;
7501;SDS011;3792;47.740;7.606;2023-03-13T02:18:15;2.57;;;0.90;;
7501;SDS011;3792;47.740;7.606;2023-03-13T02:20:44;2.13;;;0.83;;
7501;SDS011;3792;47.740;7.606;2023-03-13T02:23:13;3.97;;;1.07;;
7501;SDS011;3792;47.740;7.606;2023-03-13T02:25:47;1.23;;;0.90;;
7501;SDS011;3792;47.740;7.606;2023-03-13T02:28:16;2.63;;;0.80;;
7501;SDS011;3792;47.740;7.606;2023-03-13T02:30:46;1.43;;;0.80;;
7501;SDS011;3792;47.740;7.606;2023-03-13T02:33:15;1.43;;;0.97;;
7501;SDS011;3792;47.740;7.606;2023-03-13T02:35:44;1.57;;;0.93;;
7501;SDS011;3792;47.740;7.606;2023-03-13T02:38:13;3.17;;;1.10;;
7501;SDS011;3792;47.740;7.606;2023-03-13T02:40:45;2.50;;;0.90;;
7501;SDS011;3792;47.740;7.606;2023-03-13T02:43:17;3.50;;;1.10;;
7501;SDS011;3792;47.740;7.606;2023-03-13T02:45:59;3.87;;;1.50;;
7501;SDS011;3792;47.740;7.606;2023-03-13T02:48:32;1.53;;;1.00;;
7501;SDS011;3792;47.740;7.606;2023-03-13T02:51:01;2.63;;;1.00;;
7501;SDS011;3792;47.740;7.606;2023-03-13T02:53:31;1.87;;;1.07;;
7501;SDS011;3792;47.740;7.606;2023-03-13T02:56:02;2.50;;;1.30;;
7501;SDS011;3792;47.740;7.606;2023-03-13T02:58:36;1.80;;;0.97;;
7501;SDS011;3792;47.740;7.606;2023-03-13T03:01:05;3.13;;;1.10;;
7501;SDS011;3792;47.740;7.606;2023-03-13T03:03:32;1.90;;;1.17;;
7501;SDS011;3792;47.740;7.606;2023-03-13T03:06:01;3.63;;;1.10;;
7501;SDS011;3792;47.740;7.606;2023-03-13T03:08:28;4.13;;;2.50;;
7501;SDS011;3792;47.740;7.606;2023-03-13T03:10:55;3.20;;;1.80;;
7501;SDS011;3792;47.740;7.606;2023-03-13T03:13:24;1.33;;;1.10;;
7501;SDS011;3792;47.740;7.606;2023-03-13T03:15:51;1.50;;;0.90;;
7501;SDS011;3792;47.740;7.606;2023-03-13T03:18:18;3.80;;;1.33;;
7501;SDS011;3792;47.740;7.606;2023-03-13T03:20:45;3.23;;;0.90;;
7501;SDS011;3792;47.740;7.606;2023-03-13T03:23:12;2.93;;;0.93;;
7501;SDS011;3792;47.740;7.606;2023-03-13T03:25:39;2.03;;;1.03;;
7501;SDS011;3792;47.740;7.606;2023-03-13T03:28:06;2.10;;;0.90;;
7501;SDS011;3792;47.740;7.606;2023-03-13T03:30:34;2.37;;;1.00;;
7501;SDS011;3792;47.740;7.606;2023-03-13T03:33:02;1.40;;;0.93;;
7501;SDS011;3792;47.740;7.606;2023-03-13T03:35:29;0.83;;;0.83;;
7501;SDS011;3792;47.740;7.606;2023-03-13T03:37:58;4.40;;;1.20;;
7501;SDS011;3792;47.740;7.606;2023-03-13T03:40:25;3.60;;;1.10;;
7501;SDS011;3792;47.740;7.606;2023-03-13T03:42:52;1.90;;;0.97;;
7501;SDS011;3792;47.740;7.606;2023-03-13T03:45:20;2.73;;;1.20;;
7501;SDS011;3792;47.740;7.606;2023-03-13T03:47:48;1.03;;;1.00;;
7501;SDS011;3792;47.740;7.606;2023-03-13T03:50:15;4.10;;;1.10;;
7501;SDS011;3792;47.740;7.606;2023-03-13T03:52:42;3.13;;;1.23;;
7501;SDS011;3792;47.740;7.606;2023-03-13T03:55:09;1.07;;;0.60;;
7501;SDS011;3792;47.740;7.606;2023-03-13T03:57:36;1.93;;;0.90;;
7501;SDS011;3792;47.740;7.606;2023-03-13T04:00:03;3.17;;;0.90;;
7501;SDS011;3792;47.740;7.606;2023-03-13T04:02:32;0.93;;;0.80;;
7501;SDS011;3792;47.740;7.606;2023-03-13T04:05:00;2.57;;;0.83;;
7501;SDS011;3792;47.740;7.606;2023-03-13T04:07:28;3.27;;;1.43;;
7501;SDS011;3792;47.740;7.606;2023-03-13T04:09:55;0.80;;;0.70;;
7501;SDS011;3792;47.740;7.606;2023-03-13T04:12:22;1.47;;;0.80;;
7501;SDS011;3792;47.740;7.606;2023-03-13T04:14:49;1.40;;;0.70;;
7501;SDS011;3792;47.740;7.606;2023-03-13T04:17:16;2.30;;;0.77;;
7501;SDS011;3792;47.740;7.606;2023-03-13T04:19:43;0.87;;;0.63;;
7501;SDS011;3792;47.740;7.606;2023-03-13T04:22:11;1.60;;;0.60;;
7501;SDS011;3792;47.740;7.606;2023-03-13T04:24:38;0.87;;;0.70;;
7501;SDS011;3792;47.740;7.606;2023-03-13T04:27:05;0.50;;;0.50;;
7501;SDS011;3792;47.740;7.606;2023-03-13T04:29:32;1.03;;;0.70;;
7501;SDS011;3792;47.740;7.606;2023-03-13T04:32:00;1.43;;;0.50;;
7501;SDS011;3792;47.740;7.606;2023-03-13T04:34:27;0.60;;;0.60;;
7501;SDS011;3792;47.740;7.606;2023-03-13T04:36:54;1.10;;;0.60;;
7501;SDS011;3792;47.740;7.606;2023-03-13T04:39:23;2.27;;;0.73;;
7501;SDS011;3792;47.740;7.606;2023-03-13T04:41:50;1.10;;;0.50;;
7501;SDS011;3792;47.740;7.606;2023-03-13T04:44:17;0.50;;;0.50;;
7501;SDS011;3792;47.740;7.606;2023-03-13T04:46:44;1.33;;;0.63;;
7501;SDS011;3792;47.740;7.606;2023-03-13T04:49:11;1.10;;;0.53;;
7501;SDS011;3792;47.740;7.606;2023-03-13T04:51:39;12.17;;;1.23;;
7501;SDS011;3792;47.740;7.606;2023-03-13T04:54:06;1.67;;;0.50;;
7501;SDS011;3792;47.740;7.606;2023-03-13T04:56:35;1.07;;;0.50;;
7501;SDS011;3792;47.740;7.606;2023-03-13T04:59:02;1.57;;;0.60;;
7501;SDS011;3792;47.740;7.606;2023-03-13T05:01:29;2.23;;;0.80;;
7501;SDS011;3792;47.740;7.606;2023-03-13T05:03:56;0.60;;;0.60;;
7501;SDS011;3792;47.740;7.606;2023-03-13T05:06:23;1.23;;;0.70;;
7501;SDS011;3792;47.740;7.606;2023-03-13T05:08:50;0.90;;;0.60;;
7501;SDS011;3792;47.740;7.606;2023-03-13T05:11:17;0.97;;;0.97;;
7501;SDS011;3792;47.740;7.606;2023-03-13T05:13:46;0.60;;;0.60;;
7501;SDS011;3792;47.740;7.606;2023-03-13T05:16:13;0.60;;;0.60;;
7501;SDS011;3792;47.740;7.606;2023-03-13T05:18:40;0.73;;;0.60;;
7501;SDS011;3792;47.740;7.606;2023-03-13T05:21:07;0.50;;;0.50;;
7501;SDS011;3792;47.740;7.606;2023-03-13T05:23:34;1.53;;;0.53;;
7501;SDS011;3792;47.740;7.606;2023-03-13T05:26:01;1.33;;;0.90;;
7501;SDS011;3792;47.740;7.606;2023-03-13T05:28:28;0.87;;;0.50;;
7501;SDS011;3792;47.740;7.606;2023-03-13T05:30:56;1.70;;;0.90;;
7501;SDS011;3792;47.740;7.606;2023-03-13T05:33:23;1.13;;;0.73;;
7501;SDS011;3792;47.740;7.606;2023-03-13T05:35:50;0.60;;;0.60;;
7501;SDS011;3792;47.740;7.606;2023-03-13T05:38:18;1.63;;;0.60;;
7501;SDS011;3792;47.740;7.606;2023-03-13T05:40:45;0.93;;;0.60;;
7501;SDS011;3792;47.740;7.606;2023-03-13T05:43:12;1.00;;;0.57;;
7501;SDS011;3792;47.740;7.606;2023-03-13T05:45:39;2.43;;;0.63;;
7501;SDS011;3792;47.740;7.606;2023-03-13T05:48:07;0.60;;;0.60;;
7501;SDS011;3792;47.740;7.606;2023-03-13T05:50:34;0.50;;;0.50;;
7501;SDS011;3792;47.740;7.606;2023-03-13T05:53:01;0.73;;;0.70;;
7501;SDS011;3792;47.740;7.606;2023-03-13T05:55:28;0.63;;;0.53;;
7501;SDS011;3792;47.740;7.606;2023-03-13T05:57:55;2.70;;;0.60;;
7501;SDS011;3792;47.740;7.606;2023-03-13T06:00:22;1.47;;;0.80;;
7501;SDS011;3792;47.740;7.606;2023-03-13T06:02:49;1.03;;;0.60;;
7501;SDS011;3792;47.740;7.606;2023-03-13T06:05:18;2.87;;;1.37;;
7501;SDS011;3792;47.740;7.606;2023-03-13T06:07:45;2.13;;;0.70;;
7501;SDS011;3792;47.740;7.606;2023-03-13T06:10:12;0.63;;;0.63;;
7501;SDS011;3792;47.740;7.606;2023-03-13T06:12:39;0.50;;;0.40;;
7501;SDS011;3792;47.740;7.606;2023-03-13T06:15:06;1.10;;;0.43;;
7501;SDS011;3792;47.740;7.606;2023-03-13T06:17:34;2.97;;;0.70;;
7501;SDS011;3792;47.740;7.606;2023-03-13T06:20:01;1.73;;;1.20;;
7501;SDS011;3792;47.740;7.606;2023-03-13T06:22:31;0.77;;;0.50;;
7501;SDS011;3792;47.740;7.606;2023-03-13T06:24:58;0.73;;;0.60;;
7501;SDS011;3792;47.740;7.606;2023-03-13T06:27:25;1.13;;;0.70;;
7501;SDS011;3792;47.740;7.606;2023-03-13T06:29:52;3.73;;;0.50;;
7501;SDS011;3792;47.740;7.606;2023-03-13T06:32:19;0.87;;;0.57;;
7501;SDS011;3792;47.740;7.606;2023-03-13T06:34:46;1.90;;;0.83;;
7501;SDS011;3792;47.740;7.606;2023-03-13T06:37:13;0.87;;;0.60;;
7501;SDS011;3792;47.740;7.606;2023-03-13T06:39:42;1.17;;;0.80;;
7501;SDS011;3792;47.740;7.606;2023-03-13T06:42:09;0.60;;;0.50;;
7501;SDS011;3792;47.740;7.606;2023-03-13T06:44:37;0.67;;;0.60;;
7501;SDS011;3792;47.740;7.606;2023-03-13T06:47:05;0.60;;;0.40;;
7501;SDS011;3792;47.740;7.606;2023-03-13T06:49:32;0.40;;;0.40;;
7501;SDS011;3792;47.740;7.606;2023-03-13T06:52:01;1.40;;;0.80;;
7501;SDS011;3792;47.740;7.606;2023-03-13T06:54:28;3.53;;;0.70;;
7501;SDS011;3792;47.740;7.606;2023-03-13T06:56:56;2.77;;;0.70;;
7501;SDS011;3792;47.740;7.606;2023-03-13T06:59:23;0.77;;;0.67;;
7501;SDS011;3792;47.740;7.606;2023-03-13T07:01:51;1.37;;;1.03;;
7501;SDS011;3792;47.740;7.606;2023-03-13T07:04:18;2.97;;;0.60;;
7501;SDS011;3792;47.740;7.606;2023-03-13T07:06:45;1.43;;;0.67;;
7501;SDS011;3792;47.740;7.606;2023-03-13T07:09:13;0.50;;;0.50;;
7501;SDS011;3792;47.740;7.606;2023-03-13T07:11:40;3.00;;;0.90;;
7501;SDS011;3792;47.740;7.606;2023-03-13T07:14:08;3.73;;;0.80;;
7501;SDS011;3792;47.740;7.606;2023-03-13T07:16:35;1.57;;;0.60;;
7501;SDS011;3792;47.740;7.606;2023-03-13T07:19:02;1.13;;;0.50;;
7501;SDS011;3792;47.740;7.606;2023-03-13T07:21:29;1.60;;;0.73;;
7501;SDS011;3792;47.740;7.606;2023-03-13T07:23:56;0.90;;;0.60;;
7501;SDS011;3792;47.740;7.606;2023-03-13T07:26:23;0.80;;;0.60;;
7501;SDS011;3792;47.740;7.606;2023-03-13T07:28:50;0.80;;;0.80;;
7501;SDS011;3792;47.740;7.606;2023-03-13T07:31:19;2.40;;;0.63;;
7501;SDS011;3792;47.740;7.606;2023-03-13T07:33:47;0.90;;;0.83;;
7501;SDS011;3792;47.740;7.606;2023-03-13T07:36:17;1.13;;;0.83;;
7501;SDS011;3792;47.740;7.606;2023-03-13T07:38:46;2.00;;;0.60;;
7501;SDS011;3792;47.740;7.606;2023-03-13T07:41:13;1.10;;;1.00;;
7501;SDS011;3792;47.740;7.606;2023-03-13T07:43:40;0.90;;;0.73;;
7501;SDS011;3792;47.740;7.606;2023-03-13T07:46:09;0.70;;;0.63;;
7501;SDS011;3792;47.740;7.606;2023-03-13T07:48:39;2.93;;;0.80;;
7501;SDS011;3792;47.740;7.606;2023-03-13T07:51:09;1.60;;;0.87;;
7501;SDS011;3792;47.740;7.606;2023-03-13T07:53:38;1.40;;;0.90;;
7501;SDS011;3792;47.740;7.606;2023-03-13T07:56:05;3.30;;;1.23;;
7501;SDS011;3792;47.740;7.606;2023-03-13T07:58:35;1.33;;;0.97;;
7501;SDS011;3792;47.740;7.606;2023-03-13T08:01:06;0.80;;;0.73;;
7501;SDS011;3792;47.740;7.606;2023-03-13T08:03:34;0.70;;;0.70;;
7501;SDS011;3792;47.740;7.606;2023-03-13T08:06:04;0.87;;;0.50;;
7501;SDS011;3792;47.740;7.606;2023-03-13T08:08:32;3.50;;;0.70;;
7501;SDS011;3792;47.740;7.606;2023-03-13T08:11:00;2.20;;;0.67;;
7501;SDS011;3792;47.740;7.606;2023-03-13T08:13:27;1.27;;;0.67;;
7501;SDS011;3792;47.740;7.606;2023-03-13T08:16:00;0.70;;;0.70;;
7501;SDS011;3792;47.740;7.606;2023-03-13T08:18:28;0.67;;;0.67;;
7501;SDS011;3792;47.740;7.606;2023-03-13T08:20:59;1.00;;;0.70;;
7501;SDS011;3792;47.740;7.606;2023-03-13T08:23:29;0.53;;;0.50;;
7501;SDS011;3792;47.740;7.606;2023-03-13T08:26:00;0.60;;;0.60;;
7501;SDS011;3792;47.740;7.606;2023-03-13T08:28:28;1.03;;;0.93;;
7501;SDS011;3792;47.740;7.606;2023-03-13T08:30:55;3.00;;;0.80;;
7501;SDS011;3792;47.740;7.606;2023-03-13T08:33:22;0.50;;;0.50;;
7501;SDS011;3792;47.740;7.606;2023-03-13T08:35:49;0.50;;;0.50;;
7501;SDS011;3792;47.740;7.606;2023-03-13T08:38:16;1.80;;;0.77;;
7501;SDS011;3792;47.740;7.606;2023-03-13T08:40:45;0.47;;;0.47;;
7501;SDS011;3792;47.740;7.606;2023-03-13T08:43:12;1.03;;;0.70;;
7501;SDS011;3792;47.740;7.606;2023-03-13T08:45:39;1.17;;;0.60;;
7501;SDS011;3792;47.740;7.606;2023-03-13T08:48:06;0.67;;;0.60;;
7501;SDS011;3792;47.740;7.606;2023-03-13T08:50:33;0.40;;;0.40;;
7501;SDS011;3792;47.740;7.606;2023-03-13T08:53:00;1.17;;;0.60;;
7501;SDS011;3792;47.740;7.606;2023-03-13T08:55:28;1.13;;;0.70;;
7501;SDS011;3792;47.740;7.606;2023-03-13T08:57:56;1.30;;;0.63;;
7501;SDS011;3792;47.740;7.606;2023-03-13T09:00:23;1.10;;;0.70;;
7501;SDS011;3792;47.740;7.606;2023-03-13T09:02:50;0.70;;;0.50;;
7501;SDS011;3792;47.740;7.606;2023-03-13T09:05:17;0.60;;;0.60;;
7501;SDS011;3792;47.740;7.606;2023-03-13T09:07:44;0.50;;;0.50;;
7501;SDS011;3792;47.740;7.606;2023-03-13T09:10:11;0.60;;;0.60;;
7501;SDS011;3792;47.740;7.606;2023-03-13T09:12:38;1.13;;;0.70;;
7501;SDS011;3792;47.740;7.606;2023-03-13T09:15:08;0.70;;;0.70;;
7501;SDS011;3792;47.740;7.606;2023-03-13T09:17:36;0.67;;;0.67;;
7501;SDS011;3792;47.740;7.606;2023-03-13T09:20:03;0.80;;;0.80;;
7501;SDS011;3792;47.740;7.606;2023-03-13T09:22:31;2.30;;;1.07;;
7501;SDS011;3792;47.740;7.606;2023-03-13T09:24:58;0.63;;;0.63;;
7501;SDS011;3792;47.740;7.606;2023-03-13T09:27:25;0.63;;;0.63;;
7501;SDS011;3792;47.740;7.606;2023-03-13T09:29:52;0.63;;;0.63;;
7501;SDS011;3792;47.740;7.606;2023-03-13T09:32:21;1.07;;;0.70;;
7501;SDS011;3792;47.740;7.606;2023-03-13T09:34:48;0.90;;;0.70;;
7501;SDS011;3792;47.740;7.606;2023-03-13T09:37:15;2.43;;;0.70;;
7501;SDS011;3792;47.740;7.606;2023-03-13T09:39:42;0.80;;;0.80;;
7501;SDS011;3792;47.740;7.606;2023-03-13T09:42:11;0.70;;;0.70;;
7501;SDS011;3792;47.740;7.606;2023-03-13T09:44:41;0.70;;;0.70;;
7501;SDS011;3792;47.740;7.606;2023-03-13T09:47:15;0.80;;;0.80;;
7501;SDS011;3792;47.740;7.606;2023-03-13T09:49:48;0.50;;;0.50;;
7501;SDS011;3792;47.740;7.606;2023-03-13T09:52:21;1.77;;;0.80;;
7501;SDS011;3792;47.740;7.606;2023-03-13T09:54:49;1.37;;;0.70;;
7501;SDS011;3792;47.740;7.606;2023-03-13T09:57:22;1.10;;;0.80;;
7501;SDS011;3792;47.740;7.606;2023-03-13T09:59:54;1.00;;;0.70;;
7501;SDS011;3792;47.740;7.606;2023-03-13T10:02:26;0.90;;;0.80;;
7501;SDS011;3792;47.740;7.606;2023-03-13T10:05:01;0.60;;;0.60;;
7501;SDS011;3792;47.740;7.606;2023-03-13T10:07:33;0.77;;;0.50;;
7501;SDS011;3792;47.740;7.606;2023-03-13T10:10:00;1.13;;;0.80;;
7501;SDS011;3792;47.740;7.606;2023-03-13T10:12:30;0.70;;;0.70;;
7501;SDS011;3792;47.740;7.606;2023-03-13T10:15:06;1.67;;;0.63;;
7501;SDS011;3792;47.740;7.606;2023-03-13T10:17:55;3.70;;;0.90;;
7501;SDS011;3792;47.740;7.606;2023-03-13T10:20:26;1.10;;;0.80;;
7501;SDS011;3792;47.740;7.606;2023-03-13T10:22:55;0.80;;;0.80;;
7501;SDS011;3792;47.740;7.606;2023-03-13T10:25:26;1.60;;;0.63;;
7501;SDS011;3792;47.740;7.606;2023-03-13T10:27:57;0.63;;;0.63;;
7501;SDS011;3792;47.740;7.606;2023-03-13T10:30:25;0.80;;;0.80;;
7501;SDS011;3792;47.740;7.606;2023-03-13T10:32:53;3.97;;;0.97;;
7501;SDS011;3792;47.740;7.606;2023-03-13T10:35:30;0.80;;;0.80;;
7501;SDS011;3792;47.740;7.606;2023-03-13T10:38:07;0.80;;;0.80;;
7501;SDS011;3792;47.740;7.606;2023-03-13T10:40:36;0.90;;;0.57;;
7501;SDS011;3792;47.740;7.606;2023-03-13T10:43:04;0.83;;;0.60;;
7501;SDS011;3792;47.740;7.606;2023-03-13T10:45:33;1.67;;;0.90;;
7501;SDS011;3792;47.740;7.606;2023-03-13T10:48:03;0.80;;;0.70;;
7501;SDS011;3792;47.740;7.606;2023-03-13T10:50:41;1.13;;;0.70;;
7501;SDS011;3792;47.740;7.606;2023-03-13T10:53:20;0.97;;;0.63;;
7501;SDS011;3792;47.740;7.606;2023-03-13T10:55:51;1.87;;;0.60;;
7501;SDS011;3792;47.740;7.606;2023-03-13T10:58:22;0.50;;;0.50;;
7501;SDS011;3792;47.740;7.606;2023-03-13T11:00:52;0.97;;;0.90;;
7501;SDS011;3792;47.740;7.606;2023-03-13T11:03:41;0.60;;;0.60;;
7501;SDS011;3792;47.740;7.606;2023-03-13T11:06:20;2.30;;;0.67;;
7501;SDS011;3792;47.740;7.606;2023-03-13T11:08:50;0.60;;;0.50;;
7501;SDS011;3792;47.740;7.606;2023-03-13T11:11:25;1.00;;;0.60;;
7501;SDS011;3792;47.740;7.606;2023-03-13T11:13:55;0.70;;;0.70;;
7501;SDS011;3792;47.740;7.606;2023-03-13T11:16:35;0.97;;;0.63;;
7501;SDS011;3792;47.740;7.606;2023-03-13T11:22:16;0.67;;;0.63;;
7501;SDS011;3792;47.740;7.606;2023-03-13T11:24:52;1.67;;;0.63;;
7501;SDS011;3792;47.740;7.606;2023-03-13T11:27:29;1.03;;;0.70;;
7501;SDS011;3792;47.740;7.606;2023-03-13T11:30:07;1.40;;;0.70;;
7501;SDS011;3792;47.740;7.606;2023-03-13T11:32:51;0.67;;;0.67;;
7501;SDS011;3792;47.740;7.606;2023-03-13T11:35:25;0.43;;;0.43;;
7501;SDS011;3792;47.740;7.606;2023-03-13T11:38:06;1.50;;;0.57;;
7501;SDS011;3792;47.740;7.606;2023-03-13T11:40:38;0.80;;;0.70;;
7501;SDS011;3792;47.740;7.606;2023-03-13T11:46:06;0.70;;;0.60;;
7501;SDS011;3792;47.740;7.606;2023-03-13T11:48:48;0.93;;;0.57;;
7501;SDS011;3792;47.740;7.606;2023-03-13T11:51:33;0.50;;;0.50;;
7501;SDS011;3792;47.740;7.606;2023-03-13T11:54:21;1.40;;;0.50;;
7501;SDS011;3792;47.740;7.606;2023-03-13T11:56:57;0.50;;;0.50;;
7501;SDS011;3792;47.740;7.606;2023-03-13T11:59:31;0.80;;;0.60;;
7501;SDS011;3792;47.740;7.606;2023-03-13T12:02:05;1.13;;;0.80;;
7501;SDS011;3792;47.740;7.606;2023-03-13T12:04:44;0.47;;;0.47;;
7501;SDS011;3792;47.740;7.606;2023-03-13T12:07:17;0.60;;;0.60;;
7501;SDS011;3792;47.740;7.606;2023-03-13T12:09:50;0.47;;;0.47;;
7501;SDS011;3792;47.740;7.606;2023-03-13T12:12:25;0.90;;;0.60;;
7501;SDS011;3792;47.740;7.606;2023-03-13T12:15:01;0.50;;;0.50;;
7501;SDS011;3792;47.740;7.606;2023-03-13T12:17:40;0.57;;;0.57;;
7501;SDS011;3792;47.740;7.606;2023-03-13T12:20:12;0.60;;;0.50;;
7501;SDS011;3792;47.740;7.606;2023-03-13T12:22:47;0.50;;;0.50;;
7501;SDS011;3792;47.740;7.606;2023-03-13T12:25:24;0.60;;;0.60;;
7501;SDS011;3792;47.740;7.606;2023-03-13T12:27:55;1.63;;;0.50;;
7501;SDS011;3792;47.740;7.606;2023-03-13T12:30:30;1.20;;;0.60;;
7501;SDS011;3792;47.740;7.606;2023-03-13T12:33:03;0.87;;;0.60;;
7501;SDS011;3792;47.740;7.606;2023-03-13T12:35:39;0.50;;;0.50;;
7501;SDS011;3792;47.740;7.606;2023-03-13T12:38:13;0.80;;;0.70;;
7501;SDS011;3792;47.740;7.606;2023-03-13T12:40:46;0.60;;;0.60;;
7501;SDS011;3792;47.740;7.606;2023-03-13T12:43:17;0.93;;;0.87;;
7501;SDS011;3792;47.740;7.606;2023-03-13T12:45:52;0.60;;;0.60;;
7501;SDS011;3792;47.740;7.606;2023-03-13T12:48:43;0.93;;;0.83;;
7501;SDS011;3792;47.740;7.606;2023-03-13T12:51:37;1.00;;;0.60;;
7501;SDS011;3792;47.740;7.606;2023-03-13T12:57:13;0.60;;;0.60;;
7501;SDS011;3792;47.740;7.606;2023-03-13T12:59:51;0.60;;;0.60;;
7501;SDS011;3792;47.740;7.606;2023-03-13T13:02:23;0.70;;;0.60;;
7501;SDS011;3792;47.740;7.606;2023-03-13T13:04:53;0.87;;;0.70;;
7501;SDS011;3792;47.740;7.606;2023-03-13T13:07:23;0.80;;;0.80;;
7501;SDS011;3792;47.740;7.606;2023-03-13T13:10:00;1.40;;;0.70;;
7501;SDS011;3792;47.740;7.606;2023-03-13T13:12:31;1.10;;;0.73;;
7501;SDS011;3792;47.740;7.606;2023-03-13T13:15:03;0.60;;;0.60;;
7501;SDS011;3792;47.740;7.606;2023-03-13T13:17:57;0.83;;;0.73;;
7501;SDS011;3792;47.740;7.606;2023-03-13T13:20:37;1.80;;;0.70;;
7501;SDS011;3792;47.740;7.606;2023-03-13T13:23:19;0.80;;;0.80;;
7501;SDS011;3792;47.740;7.606;2023-03-13T13:25:52;0.73;;;0.70;;
7501;SDS011;3792;47.740;7.606;2023-03-13T13:28:31;2.10;;;0.90;;
7501;SDS011;3792;47.740;7.606;2023-03-13T13:31:01;0.70;;;0.70;;
7501;SDS011;3792;47.740;7.606;2023-03-13T13:33:52;0.93;;;0.90;;
7501;SDS011;3792;47.740;7.606;2023-03-13T13:45:28;3.40;;;0.80;;
7501;SDS011;3792;47.740;7.606;2023-03-13T13:48:14;1.80;;;0.80;;
7501;SDS011;3792;47.740;7.606;2023-03-13T13:53:49;1.17;;;0.70;;
7501;SDS011;3792;47.740;7.606;2023-03-13T13:56:30;2.20;;;0.80;;
7501;SDS011;3792;47.740;7.606;2023-03-13T13:59:03;1.13;;;0.90;;
7501;SDS011;3792;47.740;7.606;2023-03-13T14:02:04;1.63;;;0.87;;
7501;SDS011;3792;47.740;7.606;2023-03-13T14:04:43;1.47;;;0.83;;
7501;SDS011;3792;47.740;7.606;2023-03-13T14:07:26;1.60;;;0.90;;
7501;SDS011;3792;47.740;7.606;2023-03-13T14:09:58;1.07;;;0.80;;
7501;SDS011;3792;47.740;7.606;2023-03-13T14:12:30;1.67;;;0.80;;
7501;SDS011;3792;47.740;7.606;2023-03-13T14:15:06;1.23;;;0.90;;
7501;SDS011;3792;47.740;7.606;2023-03-13T14:17:39;1.33;;;0.90;;
7501;SDS011;3792;47.740;7.606;2023-03-13T14:20:24;1.57;;;1.00;;
7501;SDS011;3792;47.740;7.606;2023-03-13T14:22:54;3.40;;;1.30;;
7501;SDS011;3792;47.740;7.606;2023-03-13T14:25:24;1.80;;;1.10;;
7501;SDS011;3792;47.740;7.606;2023-03-13T14:27:53;2.23;;;0.80;;
7501;SDS011;3792;47.740;7.606;2023-03-13T14:30:22;1.80;;;1.00;;
7501;SDS011;3792;47.740;7.606;2023-03-13T14:32:52;1.03;;;0.90;;
7501;SDS011;3792;47.740;7.606;2023-03-13T14:35:19;2.77;;;1.20;;
7501;SDS011;3792;47.740;7.606;2023-03-13T14:37:48;3.60;;;1.00;;
7501;SDS011;3792;47.740;7.606;2023-03-13T14:40:19;1.53;;;0.90;;
7501;SDS011;3792;47.740;7.606;2023-03-13T14:42:50;3.37;;;1.10;;
7501;SDS011;3792;47.740;7.606;2023-03-13T14:45:20;4.40;;;1.10;;
7501;SDS011;3792;47.740;7.606;2023-03-13T14:47:50;2.83;;;0.90;;
7501;SDS011;3792;47.740;7.606;2023-03-13T14:50:20;5.83;;;1.30;;
7501;SDS011;3792;47.740;7.606;2023-03-13T14:52:50;3.53;;;1.20;;
7501;SDS011;3792;47.740;7.606;2023-03-13T14:55:26;1.10;;;0.97;;
7501;SDS011;3792;47.740;7.606;2023-03-13T14:57:57;0.63;;;0.63;;
7501;SDS011;3792;47.740;7.606;2023-03-13T15:00:30;4.17;;;1.10;;
7501;SDS011;3792;47.740;7.606;2023-03-13T15:03:15;0.87;;;0.83;;
7501;SDS011;3792;47.740;7.606;2023-03-13T15:05:47;2.97;;;0.90;;
7501;SDS011;3792;47.740;7.606;2023-03-13T15:08:16;1.60;;;0.80;;
7501;SDS011;3792;47.740;7.606;2023-03-13T15:10:44;0.93;;;0.70;;
7501;SDS011;3792;47.740;7.606;2023-03-13T15:13:15;1.30;;;0.80;;
7501;SDS011;3792;47.740;7.606;2023-03-13T15:15:43;0.70;;;0.70;;
7501;SDS011;3792;47.740;7.606;2023-03-13T15:18:16;1.47;;;0.80;;
7501;SDS011;3792;47.740;7.606;2023-03-13T15:20:47;0.70;;;0.70;;
7501;SDS011;3792;47.740;7.606;2023-03-13T15:23:15;1.10;;;0.70;;
7501;SDS011;3792;47.740;7.606;2023-03-13T15:25:42;0.80;;;0.80;;
7501;SDS011;3792;47.740;7.606;2023-03-13T15:28:12;1.97;;;1.17;;
7501;SDS011;3792;47.740;7.606;2023-03-13T15:30:41;2.30;;;0.90;;
7501;SDS011;3792;47.740;7.606;2023-03-13T15:33:12;1.53;;;1.00;;
7501;SDS011;3792;47.740;7.606;2023-03-13T15:35:42;1.30;;;0.90;;
7501;SDS011;3792;47.740;7.606;2023-03-13T15:38:11;0.83;;;0.83;;
7501;SDS011;3792;47.740;7.606;2023-03-13T15:40:41;1.50;;;0.90;;
7501;SDS011;3792;47.740;7.606;2023-03-13T15:43:09;2.40;;;0.90;;
7501;SDS011;3792;47.740;7.606;2023-03-13T15:45:37;0.70;;;0.70;;
7501;SDS011;3792;47.740;7.606;2023-03-13T15:48:10;1.90;;;0.80;;
7501;SDS011;3792;47.740;7.606;2023-03-13T15:50:42;0.87;;;0.80;;
7501;SDS011;3792;47.740;7.606;2023-03-13T15:53:12;0.70;;;0.70;;
7501;SDS011;3792;47.740;7.606;2023-03-13T15:55:44;1.30;;;0.90;;
7501;SDS011;3792;47.740;7.606;2023-03-13T15:58:12;0.80;;;0.80;;